Talin, Estonija

12:42 PM EEST on september 22, 2017 (GMT +0300)
Metsakasti | | Change Station

Viš 49 ft 59.50 °N, 24.90 °E | Updated 7 minutes ago

Pretezno oblacno
Pretezno oblacno
61.9 °F
Feels Like 61.9 °F
N
8.7
Veter Spremenljivo Veter od SSV
Gusts 13.0 mph

Danes
High -- | Low -- °F
--% Chance of Precip.
Yesterday
High -- | Low -- °F
Precip. -- v
Zračni tlak 30.24 v
Vidljivost 6.2 milje
Oblaki Pretezno oblacno 1300 ft
Rosišče 53 °F
Vlažnost 73%
Padavine 0.04 v
Snow Depth Not available.
7:04 AM 7:19 PM
Naraščajoči krajec, 5% visible
METAR EETN 220920Z 10011KT 9999 BKN013 13/11 Q1024 NOSIG
Zračni tlak 30.24 v
Vidljivost 6.2 milje
Oblaki Pretezno oblacno 1300 ft
Rosišče 53 °F
Vlažnost 73%
Padavine 0.04 v
Snow Depth Not available.
7:04 AM 7:19 PM
Naraščajoči krajec, 5% visible
METAR EETN 220920Z 10011KT 9999 BKN013 13/11 Q1024 NOSIG

Get Severe Weather Alerts

Thanks for signing up!

Be on the lookout for a verification email in your inbox.

You'll start receiving the daily forecast at 6 AM.

×

10-Day Weather Forecast

×

Almanac

Astronomija

Sep. 22, 2017 Rise Set
Actual Time
Civil Twilight
Nautical Twilight
Astronomical Twilight
Moon
Length Of Visible Light
Dolžina dneva
Tomorrow will be .
, % of the Moon is Illuminated

Današnji ekstremi

Country Highs Country Lows

Community

WunderPhotos

Category 6

Welcome to Category 6. This is the collective home for Weather Underground's featured writeups by Dr. Jeff Masters (right), Bob Henson (left), Chris Burt, and other regular contributors.

Nearby

Air Quality

  Air Quality AQ Index Pollutant
Not available.

Snow Depth

Station Depth Višina

Earthquake Activity

City Distance Mag. Time & Date
Minimum magnitude displayed is 2.5.

Coastal Water Temperatures

Mesto Temperatura

Stations

Nearby Weather Stations

Station Location Temp Občutek zaradi vetra Rosišče Vlažnost Veter Precip. Viš Obnovljeno Type